Bear Creek Observed Data For Previous 48 Hours

Caption
Day and Hour Reservoir Elevation (behind dam)* Tailwater Elevation (below dam)* Average Hourly Discharge*
6/24/2017 1 AM CDT 575.52 544.88 1,351
6/24/2017 2 AM CDT 575.48 544.90 1,356
6/24/2017 3 AM CDT 575.44 544.94 1,367
6/24/2017 4 AM CDT 575.39 544.94 1,367
6/24/2017 5 AM CDT 575.35 544.95 1,370
6/24/2017 6 AM CDT 575.31 544.94 1,367
6/24/2017 7 AM CDT 575.28 544.93 1,364
6/24/2017 8 AM CDT 575.25 544.94 1,367
6/24/2017 9 AM CDT 575.23 544.92 1,362
6/24/2017 10 AM CDT 575.20 544.94 1,367
6/24/2017 11 AM CDT 575.22 544.19 1,168
6/24/2017 12 PM CDT 575.25 543.60 1,019
6/24/2017 1 PM CDT 575.32 543.09 899
6/24/2017 2 PM CDT 575.37 542.72 812
6/24/2017 3 PM CDT 575.42 542.59 783
6/24/2017 4 PM CDT 575.47 542.52 766
6/24/2017 5 PM CDT 575.52 542.50 762
6/24/2017 6 PM CDT 575.57 542.49 760
6/24/2017 7 PM CDT 575.61 542.46 753
6/24/2017 8 PM CDT 575.65 542.49 760
6/24/2017 9 PM CDT 575.70 542.50 762
6/24/2017 10 PM CDT 575.74 542.52 766
6/24/2017 11 PM CDT 575.78 542.49 760
6/25/2017 12 AM CDT 575.82 542.50 762
6/25/2017 1 AM CDT 575.86 542.50 762
6/25/2017 2 AM CDT 575.89 542.51 764
6/25/2017 3 AM CDT 575.92 542.51 764
6/25/2017 4 AM CDT 575.95 542.49 760
6/25/2017 5 AM CDT 575.97 542.51 764
6/25/2017 6 AM CDT 575.97 542.52 766
6/25/2017 7 AM CDT 575.98 542.52 766
6/25/2017 8 AM CDT 575.96 542.52 766
6/25/2017 9 AM CDT 575.94 542.51 764
6/25/2017 10 AM CDT 575.89 542.51 764
6/25/2017 11 AM CDT 575.85 542.52 766
6/25/2017 12 PM CDT 575.79 542.51 764
6/25/2017 1 PM CDT 575.73 542.49 760
6/25/2017 2 PM CDT 575.66 542.48 757
6/25/2017 3 PM CDT 575.59 542.47 755
6/25/2017 4 PM CDT 575.52 542.45 750
6/25/2017 5 PM CDT 575.45 542.47 755
6/25/2017 6 PM CDT 575.39 542.34 725
6/25/2017 7 PM CDT 575.33 541.97 640
6/25/2017 8 PM CDT 575.28 541.87 617
6/25/2017 9 PM CDT 575.23 541.83 608
6/25/2017 10 PM CDT 575.19 541.82 606
6/25/2017 11 PM CDT 575.13 541.82 606
6/26/2017 12 AM CDT 575.08 541.80 601
6/26/2017 1 AM CDT 575.02 541.80 601
6/26/2017 2 AM CDT 574.97 541.81 603
6/26/2017 3 AM CDT 574.92 541.80 601
6/26/2017 4 AM CDT 574.85 541.78 597
6/26/2017 5 AM CDT 574.79 541.78 597
6/26/2017 6 AM CDT 574.72 541.78 597
6/26/2017 7 AM CDT 574.66 541.78 597

Elevations are in feet above sea level. Discharges are in cubic feet per second and are reported at the end of the hour.